createdAt,value
2019-04-01T00:01:52.639Z,9.87
2019-04-01T00:04:20.738Z,9.63
2019-04-01T00:06:48.636Z,8.53
2019-04-01T00:09:16.411Z,8.73
2019-04-01T00:11:44.085Z,12.80
2019-04-01T00:14:11.630Z,10.97
2019-04-01T00:16:39.175Z,8.40
2019-04-01T00:19:06.333Z,9.93
2019-04-01T00:21:33.815Z,8.07
2019-04-01T00:24:01.006Z,7.50
2019-04-01T00:26:28.736Z,7.67
2019-04-01T00:28:55.943Z,7.33
2019-04-01T00:31:23.257Z,9.23
2019-04-01T00:33:50.979Z,8.97
2019-04-01T00:36:18.231Z,8.90
2019-04-01T00:38:46.047Z,11.80
2019-04-01T00:41:13.559Z,8.03
2019-04-01T00:44:00.385Z,7.63
2019-04-01T00:46:28.156Z,6.63
2019-04-01T00:48:55.704Z,8.73
2019-04-01T00:51:23.593Z,10.50
2019-04-01T00:53:50.902Z,7.40
2019-04-01T00:56:18.771Z,8.83
2019-04-01T00:58:45.979Z,7.93
2019-04-01T01:01:13.183Z,9.40
2019-04-01T01:03:40.932Z,8.97
2019-04-01T01:06:08.140Z,9.67
2019-04-01T01:08:35.318Z,8.60
2019-04-01T01:11:03.150Z,8.10
2019-04-01T01:13:30.460Z,12.47
2019-04-01T01:16:04.147Z,10.67
2019-04-01T01:18:31.360Z,10.53
2019-04-01T01:20:58.788Z,7.27
2019-04-01T01:23:26.089Z,8.30
2019-04-01T01:25:53.268Z,8.20
2019-04-01T01:28:20.491Z,8.97
2019-04-01T01:30:47.989Z,7.50
2019-04-01T01:33:15.590Z,8.93
2019-04-01T01:35:43.063Z,8.27
2019-04-01T01:38:10.759Z,9.80
2019-04-01T01:40:38.550Z,10.30
2019-04-01T01:43:05.970Z,10.77
2019-04-01T01:45:33.182Z,9.67
2019-04-01T01:48:00.669Z,9.57
2019-04-01T01:50:28.208Z,8.93
2019-04-01T01:52:55.610Z,9.53
2019-04-01T01:55:23.145Z,10.83
2019-04-01T01:57:50.480Z,7.67
2019-04-01T02:00:18.270Z,9.37
2019-04-01T02:02:46.063Z,9.60
2019-04-01T02:05:13.600Z,9.20
2019-04-01T02:07:41.223Z,10.43
2019-04-01T02:10:08.771Z,9.10
2019-04-01T02:12:36.061Z,8.80
2019-04-01T02:15:04.017Z,12.37
2019-04-01T02:17:31.626Z,10.80
2019-04-01T02:19:58.844Z,10.37
2019-04-01T02:22:25.998Z,9.60
2019-04-01T02:24:53.186Z,7.77
2019-04-01T02:27:21.195Z,8.20
2019-04-01T02:29:48.410Z,8.00
2019-04-01T02:32:16.172Z,10.00
2019-04-01T02:34:43.970Z,10.13
2019-04-01T02:37:11.236Z,12.10
2019-04-01T02:39:38.781Z,8.17
2019-04-01T02:42:06.349Z,8.93
2019-04-01T02:44:34.058Z,8.27
2019-04-01T02:47:01.396Z,10.93
2019-04-01T02:49:28.969Z,7.57
2019-04-01T02:51:56.866Z,10.77
2019-04-01T02:54:35.155Z,9.63
2019-04-01T02:57:02.577Z,9.43
2019-04-01T02:59:29.771Z,9.13
2019-04-01T03:01:57.793Z,9.73
2019-04-01T03:04:24.985Z,8.67
2019-04-01T03:06:52.692Z,9.77
2019-04-01T03:09:20.243Z,14.50
2019-04-01T03:11:47.516Z,10.83
2019-04-01T03:14:14.796Z,8.73
2019-04-01T03:16:42.018Z,9.13
2019-04-01T03:19:09.464Z,8.80
2019-04-01T03:21:36.871Z,9.43
2019-04-01T03:24:04.079Z,13.30
2019-04-01T03:26:31.606Z,8.83
2019-04-01T03:28:59.082Z,8.17
2019-04-01T03:31:26.609Z,8.97
2019-04-01T03:33:54.342Z,9.17
2019-04-01T03:36:22.026Z,10.63
2019-04-01T03:38:49.317Z,7.97
2019-04-01T03:41:16.763Z,9.70
2019-04-01T03:43:44.000Z,10.20
2019-04-01T03:46:11.414Z,9.77
2019-04-01T03:48:39.028Z,9.30
2019-04-01T03:51:06.739Z,7.53
2019-04-01T03:53:34.344Z,11.33
2019-04-01T03:56:01.832Z,10.60
2019-04-01T03:58:29.025Z,10.73
2019-04-01T04:00:56.182Z,9.57
2019-04-01T04:03:23.748Z,9.17
2019-04-01T04:05:51.885Z,12.50
2019-04-01T04:08:19.374Z,10.60
2019-04-01T04:10:46.823Z,11.93
2019-04-01T04:13:13.983Z,11.00
2019-04-01T04:15:41.214Z,9.07
2019-04-01T04:18:08.642Z,11.23
2019-04-01T04:20:36.096Z,8.37
2019-04-01T04:23:03.276Z,10.57
2019-04-01T04:25:30.548Z,12.73
2019-04-01T04:27:58.112Z,10.73
2019-04-01T04:30:25.666Z,9.03
2019-04-01T04:32:53.107Z,11.83
2019-04-01T04:35:20.270Z,8.13
2019-04-01T04:37:47.484Z,6.53
2019-04-01T04:40:15.694Z,8.17
2019-04-01T04:42:42.898Z,13.43
2019-04-01T04:45:10.182Z,14.33
2019-04-01T04:47:37.921Z,10.13
2019-04-01T04:50:05.376Z,10.80
2019-04-01T04:52:32.782Z,7.57
2019-04-01T04:55:00.052Z,7.97
2019-04-01T04:57:27.356Z,8.77
2019-04-01T04:59:55.439Z,10.17
2019-04-01T05:02:24.561Z,10.40
2019-04-01T05:04:51.945Z,8.57
2019-04-01T05:07:19.210Z,7.23
2019-04-01T05:09:46.662Z,9.73
2019-04-01T05:12:14.224Z,9.77
2019-04-01T05:14:41.527Z,8.30
2019-04-01T05:17:09.131Z,9.63
2019-04-01T05:19:36.956Z,8.93
2019-04-01T05:22:04.274Z,7.70
2019-04-01T05:24:32.126Z,7.77
2019-04-01T05:27:01.447Z,8.37
2019-04-01T05:29:29.896Z,8.80
2019-04-01T05:31:58.243Z,9.67
2019-04-01T05:34:27.975Z,9.20
2019-04-01T05:36:55.670Z,10.80
2019-04-01T05:39:22.848Z,11.67
2019-04-01T05:41:50.400Z,8.27
2019-04-01T05:44:17.976Z,11.93
2019-04-01T05:46:45.668Z,9.47
2019-04-01T05:49:13.086Z,11.30
2019-04-01T05:51:40.542Z,10.90
2019-04-01T05:54:07.778Z,11.67
2019-04-01T05:56:35.204Z,14.03
2019-04-01T05:59:02.413Z,12.30
2019-04-01T06:01:38.955Z,11.73
2019-04-01T06:04:06.165Z,12.70
2019-04-01T06:06:33.333Z,15.97
2019-04-01T06:09:00.620Z,10.67
2019-04-01T06:11:27.820Z,15.03
2019-04-01T06:13:55.498Z,11.33
2019-04-01T06:16:23.223Z,9.80
2019-04-01T06:18:50.423Z,16.50
2019-04-01T06:21:17.842Z,12.23
2019-04-01T06:23:45.044Z,10.50
2019-04-01T06:26:12.323Z,11.37
2019-04-01T06:28:40.067Z,11.53
2019-04-01T06:31:07.247Z,11.07
2019-04-01T06:33:34.751Z,9.60
2019-04-01T06:36:01.930Z,15.17
2019-04-01T06:38:29.635Z,14.10
2019-04-01T06:40:56.847Z,9.37
2019-04-01T06:43:24.418Z,10.57
2019-04-01T06:45:51.593Z,10.03
2019-04-01T06:48:18.836Z,12.07
2019-04-01T06:50:46.308Z,10.97
2019-04-01T06:53:13.445Z,9.50
2019-04-01T06:55:40.921Z,12.47
2019-04-01T06:58:11.714Z,13.57
2019-04-01T07:00:37.450Z,11.33
2019-04-01T07:03:04.883Z,12.63
2019-04-01T07:05:32.094Z,12.60
2019-04-01T07:07:59.394Z,14.37
2019-04-01T07:10:26.623Z,16.23
2019-04-01T07:12:53.836Z,12.23
2019-04-01T07:15:21.057Z,15.53
2019-04-01T07:17:48.813Z,16.70
2019-04-01T07:20:15.985Z,12.30
2019-04-01T07:22:43.459Z,12.53
2019-04-01T07:25:10.683Z,15.47
2019-04-01T07:27:38.086Z,12.30
2019-04-01T07:30:05.986Z,11.73
2019-04-01T07:32:33.452Z,10.73
2019-04-01T07:35:01.466Z,10.73
2019-04-01T07:37:28.928Z,14.87
2019-04-01T07:39:56.910Z,12.77
2019-04-01T07:42:24.051Z,14.83
2019-04-01T07:44:51.373Z,12.53
2019-04-01T07:47:18.632Z,12.80
2019-04-01T07:49:46.060Z,11.30
2019-04-01T07:52:13.958Z,10.57
2019-04-01T07:54:41.182Z,12.23
2019-04-01T07:57:08.469Z,16.97
2019-04-01T07:59:36.043Z,12.37
2019-04-01T08:02:03.324Z,13.70
2019-04-01T08:04:30.917Z,13.20
2019-04-01T08:06:58.434Z,13.00
2019-04-01T08:09:25.875Z,13.83
2019-04-01T08:11:53.283Z,10.27
2019-04-01T08:14:20.723Z,14.23
2019-04-01T08:16:48.469Z,8.67
2019-04-01T08:19:16.019Z,11.07
2019-04-01T08:21:43.454Z,16.23
2019-04-01T08:24:10.646Z,11.90
2019-04-01T08:26:38.366Z,9.90
2019-04-01T08:29:05.526Z,13.20
2019-04-01T08:31:32.734Z,9.20
2019-04-01T08:34:00.026Z,13.27
2019-04-01T08:36:27.307Z,10.60
2019-04-01T08:38:55.594Z,10.20
2019-04-01T08:41:22.933Z,12.68
2019-04-01T08:43:50.127Z,12.80
2019-04-01T08:46:17.378Z,9.93
2019-04-01T08:48:45.038Z,10.75
2019-04-01T08:51:12.505Z,14.30
2019-04-01T08:53:39.727Z,11.70
2019-04-01T08:56:07.090Z,8.78
2019-04-01T08:58:34.570Z,10.20
2019-04-01T09:01:02.160Z,8.85
2019-04-01T09:03:29.381Z,9.15
2019-04-01T09:05:57.140Z,11.57
2019-04-01T09:08:25.971Z,12.18
2019-04-01T09:10:53.174Z,12.07
2019-04-01T09:13:20.634Z,14.23
2019-04-01T09:15:48.671Z,10.72
2019-04-01T09:18:15.951Z,11.12
2019-04-01T09:20:43.383Z,12.03
2019-04-01T09:23:10.853Z,16.62
2019-04-01T09:25:38.010Z,11.85
2019-04-01T09:28:05.559Z,13.13
2019-04-01T09:30:32.855Z,10.68
2019-04-01T09:33:00.301Z,14.25
2019-04-01T09:35:27.998Z,14.28
2019-04-01T09:37:55.450Z,14.45
2019-04-01T09:40:22.861Z,15.23
2019-04-01T09:42:50.362Z,16.73
2019-04-01T09:45:17.559Z,16.00
2019-04-01T09:47:45.246Z,15.50
2019-04-01T09:50:12.902Z,14.25
2019-04-01T09:52:40.099Z,14.43
2019-04-01T09:55:08.075Z,12.50
2019-04-01T09:57:35.352Z,12.07
2019-04-01T10:00:03.712Z,16.97
2019-04-01T10:02:32.405Z,13.88
2019-04-01T10:04:59.666Z,13.83
2019-04-01T10:07:27.245Z,17.17
2019-04-01T10:09:55.139Z,14.03
2019-04-01T10:12:22.592Z,17.42
2019-04-01T10:14:50.046Z,17.73
2019-04-01T10:17:17.458Z,11.73
2019-04-01T10:19:44.856Z,17.35
2019-04-01T10:22:12.282Z,14.07
2019-04-01T10:24:39.580Z,14.05
2019-04-01T10:27:07.007Z,14.90
2019-04-01T10:29:34.466Z,13.80
2019-04-01T10:32:01.657Z,15.43
2019-04-01T10:34:28.871Z,13.85
2019-04-01T10:36:56.082Z,12.63
2019-04-01T10:39:23.763Z,13.68
2019-04-01T10:41:51.767Z,15.70
2019-04-01T10:44:18.980Z,14.00
2019-04-01T10:46:46.497Z,13.75
2019-04-01T10:49:14.064Z,11.22
2019-04-01T10:51:41.329Z,19.80
2019-04-01T10:54:08.682Z,15.23
2019-04-01T10:56:36.458Z,15.70
2019-04-01T10:59:03.675Z,14.85
2019-04-01T11:01:31.192Z,17.98
2019-04-01T11:03:58.731Z,12.93
2019-04-01T11:06:26.040Z,19.15
2019-04-01T11:08:53.246Z,18.92
2019-04-01T11:11:20.535Z,13.43
2019-04-01T11:13:51.446Z,16.62
2019-04-01T11:16:17.192Z,15.50
2019-04-01T11:18:45.261Z,17.95
2019-04-01T11:21:12.863Z,21.65
2019-04-01T11:23:40.302Z,19.32
2019-04-01T11:26:07.735Z,14.93
2019-04-01T11:28:35.661Z,18.77
2019-04-01T11:31:02.949Z,16.85
2019-04-01T11:33:30.624Z,17.48
2019-04-01T11:35:58.017Z,21.07
2019-04-01T11:38:25.310Z,17.70
2019-04-01T11:40:52.796Z,16.55
2019-04-01T11:43:20.634Z,19.40
2019-04-01T11:45:48.104Z,19.73
2019-04-01T11:48:15.688Z,17.25
2019-04-01T11:50:42.970Z,15.55
2019-04-01T11:53:10.434Z,19.45
2019-04-01T11:55:37.731Z,19.90
2019-04-01T11:58:05.155Z,17.95
2019-04-01T12:00:32.686Z,16.85
2019-04-01T12:02:59.926Z,18.67
2019-04-01T12:05:27.414Z,19.37
2019-04-01T12:07:54.839Z,20.65
2019-04-01T12:10:22.288Z,21.33
2019-04-01T12:12:50.063Z,20.25
2019-04-01T12:15:17.518Z,15.40
2019-04-01T12:17:44.767Z,19.15
2019-04-01T12:20:12.524Z,21.10
2019-04-01T12:22:41.240Z,18.20
2019-04-01T12:25:09.603Z,18.95
2019-04-01T12:27:36.893Z,17.98
2019-04-01T12:30:04.519Z,17.98
2019-04-01T12:32:32.308Z,19.35
2019-04-01T12:34:59.494Z,20.95
2019-04-01T12:37:29.907Z,20.50
2019-04-01T12:39:56.279Z,23.00
2019-04-01T12:42:24.046Z,18.12
2019-04-01T12:44:51.535Z,20.62
2019-04-01T12:47:18.994Z,18.98
2019-04-01T12:49:46.422Z,16.42
2019-04-01T12:52:13.973Z,21.15
2019-04-01T12:54:41.199Z,22.37
2019-04-01T12:57:08.722Z,20.40
2019-04-01T12:59:36.700Z,20.02
2019-04-01T13:02:04.260Z,17.77
2019-04-01T13:04:36.144Z,21.82
2019-04-01T13:07:05.943Z,16.52
2019-04-01T13:09:33.150Z,15.98
2019-04-01T13:12:00.472Z,14.93
2019-04-01T13:14:28.027Z,19.05
2019-04-01T13:16:55.236Z,17.73
2019-04-01T13:19:22.691Z,19.23
2019-04-01T13:21:49.887Z,20.23
2019-04-01T13:24:17.607Z,21.33
2019-04-01T13:26:45.113Z,17.55
2019-04-01T13:29:12.767Z,20.50
2019-04-01T13:31:40.768Z,21.20
2019-04-01T13:34:08.406Z,22.40
2019-04-01T13:36:38.944Z,18.02
2019-04-01T13:39:06.702Z,21.30
2019-04-01T13:41:42.424Z,17.80
2019-04-01T13:44:03.288Z,18.95
2019-04-01T13:46:30.681Z,18.70
2019-04-01T13:49:01.669Z,16.75
2019-04-01T13:51:27.526Z,20.52
2019-04-01T13:54:08.063Z,18.85
2019-04-01T13:56:24.248Z,21.15
2019-04-01T13:58:51.775Z,18.95
2019-04-01T14:01:18.954Z,18.15
2019-04-01T14:03:46.599Z,17.98
2019-04-01T14:06:13.789Z,17.23
2019-04-01T14:08:40.969Z,19.32
2019-04-01T14:11:08.245Z,16.60
2019-04-01T14:13:35.909Z,14.93
2019-04-01T14:16:03.102Z,16.45
2019-04-01T14:18:30.505Z,16.12
2019-04-01T14:20:58.010Z,17.52
2019-04-01T14:23:25.499Z,17.70
2019-04-01T14:25:52.869Z,19.02
2019-04-01T14:28:20.330Z,16.93
2019-04-01T14:30:47.522Z,20.77
2019-04-01T14:33:14.808Z,15.32
2019-04-01T14:35:44.999Z,17.75
2019-04-01T14:38:11.547Z,18.98
2019-04-01T14:40:38.760Z,18.27
2019-04-01T14:43:06.699Z,17.62
2019-04-01T14:45:34.665Z,16.60
2019-04-01T14:48:03.415Z,17.12
2019-04-01T14:50:30.599Z,19.17
2019-04-01T14:52:58.132Z,17.82
2019-04-01T14:55:25.604Z,20.95
2019-04-01T14:57:54.863Z,18.00
2019-04-01T15:00:22.364Z,21.57
2019-04-01T15:02:50.351Z,18.25
2019-04-01T15:05:17.802Z,18.12
2019-04-01T15:07:45.259Z,18.87
2019-04-01T15:10:14.302Z,19.92
2019-04-01T15:12:42.855Z,16.75
2019-04-01T15:15:10.155Z,15.90
2019-04-01T15:17:37.371Z,17.40
2019-04-01T15:20:05.163Z,16.57
2019-04-01T15:22:32.595Z,16.27
2019-04-01T15:25:00.156Z,19.62
2019-04-01T15:27:27.503Z,18.02
2019-04-01T15:29:54.991Z,20.05
2019-04-01T15:32:23.048Z,19.45
2019-04-01T15:34:50.339Z,17.02
2019-04-01T15:37:17.675Z,15.10
2019-04-01T15:39:47.172Z,17.65
2019-04-01T15:42:14.915Z,18.52
2019-04-01T15:44:42.086Z,15.55
2019-04-01T15:47:09.787Z,16.82
2019-04-01T15:49:37.240Z,14.83
2019-04-01T15:52:04.887Z,14.63
2019-04-01T15:54:33.297Z,14.20
2019-04-01T15:57:00.760Z,16.82
2019-04-01T15:59:28.503Z,12.88
2019-04-01T16:01:55.759Z,18.30
2019-04-01T16:04:23.447Z,15.75
2019-04-01T16:06:50.811Z,19.12
2019-04-01T16:09:18.247Z,15.68
2019-04-01T16:11:47.193Z,16.65
2019-04-01T16:14:19.322Z,16.32
2019-04-01T16:16:49.545Z,16.97
2019-04-01T16:19:16.766Z,15.75
2019-04-01T16:21:44.350Z,18.60
2019-04-01T16:24:11.792Z,14.28
2019-04-01T16:26:38.978Z,15.90
2019-04-01T16:29:06.350Z,22.00
2019-04-01T16:31:33.586Z,17.85
2019-04-01T16:34:01.003Z,16.80
2019-04-01T16:36:28.217Z,18.27
2019-04-01T16:38:55.651Z,14.15
2019-04-01T16:41:22.869Z,16.10
2019-04-01T16:43:50.036Z,13.80
2019-04-01T16:46:17.589Z,15.30
2019-04-01T16:48:46.459Z,14.60
2019-04-01T16:51:14.079Z,14.13
2019-04-01T16:53:44.214Z,13.15
2019-04-01T16:56:10.954Z,16.57
2019-04-01T16:58:38.473Z,14.65
2019-04-01T17:01:06.178Z,13.62
2019-04-01T17:03:33.779Z,13.95
2019-04-01T17:06:01.227Z,17.30
2019-04-01T17:08:29.795Z,15.05
2019-04-01T17:10:57.647Z,16.73
2019-04-01T17:13:24.855Z,15.23
2019-04-01T17:15:52.715Z,20.32
2019-04-01T17:18:20.418Z,18.27
2019-04-01T17:20:47.595Z,15.53
2019-04-01T17:23:14.829Z,14.30
2019-04-01T17:25:41.983Z,17.23
2019-04-01T17:28:09.767Z,13.20
2019-04-01T17:30:37.179Z,14.38
2019-04-01T17:33:04.394Z,14.18
2019-04-01T17:35:31.876Z,13.70
2019-04-01T17:37:59.274Z,12.07
2019-04-01T17:40:27.071Z,15.93
2019-04-01T17:42:54.732Z,15.15
2019-04-01T17:45:41.082Z,15.10
2019-04-01T17:48:08.339Z,20.20
2019-04-01T17:50:35.720Z,15.40
2019-04-01T17:53:05.375Z,13.88
2019-04-01T17:55:32.931Z,16.50
2019-04-01T17:58:00.103Z,16.93
2019-04-01T18:00:28.121Z,15.53
2019-04-01T18:02:55.660Z,19.55
2019-04-01T18:05:22.922Z,13.13
2019-04-01T18:07:50.935Z,15.85
2019-04-01T18:10:18.513Z,17.55
2019-04-01T18:12:46.474Z,16.07
2019-04-01T18:15:14.150Z,14.53
2019-04-01T18:17:41.654Z,15.00
2019-04-01T18:20:09.615Z,17.92
2019-04-01T18:22:37.036Z,13.30
2019-04-01T18:25:04.444Z,15.20
2019-04-01T18:27:32.278Z,17.27
2019-04-01T18:29:59.719Z,15.83
2019-04-01T18:32:27.342Z,13.95
2019-04-01T18:34:55.277Z,14.30
2019-04-01T18:37:24.020Z,19.25
2019-04-01T18:39:51.625Z,15.83
2019-04-01T18:42:18.853Z,14.90
2019-04-01T18:44:46.116Z,17.20
2019-04-01T18:47:13.322Z,17.07
2019-04-01T18:49:41.000Z,17.55
2019-04-01T18:52:09.279Z,16.02
2019-04-01T18:54:37.053Z,17.70
2019-04-01T18:57:04.788Z,15.10
2019-04-01T18:59:31.979Z,15.88
2019-04-01T19:01:59.385Z,16.37
2019-04-01T19:04:27.302Z,13.98
2019-04-01T19:06:54.796Z,16.42
2019-04-01T19:09:22.474Z,15.08
2019-04-01T19:12:03.019Z,14.65
2019-04-01T19:14:19.766Z,20.70
2019-04-01T19:16:46.935Z,15.78
2019-04-01T19:19:14.147Z,14.23
2019-04-01T19:21:41.324Z,13.80
2019-04-01T19:24:08.953Z,16.45
2019-04-01T19:26:36.134Z,15.13
2019-04-01T19:29:03.539Z,15.78
2019-04-01T19:31:30.768Z,14.53
2019-04-01T19:33:58.359Z,15.55
2019-04-01T19:36:25.811Z,14.70
2019-04-01T19:38:54.302Z,15.95
2019-04-01T19:41:21.929Z,15.83
2019-04-01T19:43:51.187Z,14.80
2019-04-01T19:46:18.679Z,13.75
2019-04-01T19:48:46.610Z,16.25
2019-04-01T19:51:13.813Z,15.30
2019-04-01T19:53:41.263Z,20.80
2019-04-01T19:56:08.442Z,15.03
2019-04-01T19:58:35.877Z,13.80
2019-04-01T20:01:03.160Z,14.95
2019-04-01T20:03:30.331Z,15.93
2019-04-01T20:05:57.821Z,17.27
2019-04-01T20:08:25.295Z,15.88
2019-04-01T20:10:52.999Z,15.63
2019-04-01T20:13:20.305Z,15.88
2019-04-01T20:15:47.729Z,19.42
2019-04-01T20:18:15.173Z,19.60
2019-04-01T20:20:42.400Z,16.62
2019-04-01T20:23:09.871Z,16.93
2019-04-01T20:25:37.847Z,13.38
2019-04-01T20:28:05.793Z,16.62
2019-04-01T20:30:32.982Z,13.18
2019-04-01T20:33:00.702Z,15.48
2019-04-01T20:35:28.717Z,14.58
2019-04-01T20:37:56.227Z,16.70
2019-04-01T20:40:24.275Z,12.45
2019-04-01T20:42:53.123Z,14.33
2019-04-01T20:45:20.331Z,14.75
2019-04-01T20:47:50.331Z,14.47
2019-04-01T20:50:17.467Z,10.72
2019-04-01T20:52:45.012Z,13.35
2019-04-01T20:55:13.501Z,15.53
2019-04-01T20:57:41.563Z,16.50
2019-04-01T21:00:09.529Z,14.15
2019-04-01T21:02:37.419Z,11.97
2019-04-01T21:05:05.695Z,11.25
2019-04-01T21:07:33.270Z,11.53
2019-04-01T21:10:00.698Z,12.78
2019-04-01T21:12:28.208Z,13.90
2019-04-01T21:14:56.142Z,14.75
2019-04-01T21:17:24.079Z,14.93
2019-04-01T21:19:52.136Z,13.72
2019-04-01T21:22:19.354Z,12.55
2019-04-01T21:24:46.839Z,15.23
2019-04-01T21:27:14.216Z,12.03
2019-04-01T21:29:41.468Z,13.68
2019-04-01T21:32:08.915Z,12.73
2019-04-01T21:34:36.183Z,15.93
2019-04-01T21:37:03.673Z,13.45
2019-04-01T21:39:30.895Z,15.98
2019-04-01T21:41:58.099Z,16.05
2019-04-01T21:44:25.804Z,12.63
2019-04-01T21:46:52.959Z,13.88
2019-04-01T21:49:20.154Z,11.12
2019-04-01T21:51:47.333Z,12.80
2019-04-01T21:54:14.950Z,16.30
2019-04-01T21:56:42.350Z,13.43
2019-04-01T21:59:09.785Z,12.03
2019-04-01T22:01:37.455Z,11.22
2019-04-01T22:04:04.646Z,15.48
2019-04-01T22:06:32.443Z,13.22
2019-04-01T22:08:59.674Z,11.50
2019-04-01T22:11:27.011Z,15.13
2019-04-01T22:13:55.142Z,15.65
2019-04-01T22:16:23.287Z,13.58
2019-04-01T22:18:50.731Z,14.83
2019-04-01T22:21:17.861Z,13.38
2019-04-01T22:23:45.147Z,13.18
2019-04-01T22:26:12.355Z,12.88
2019-04-01T22:28:39.558Z,12.88
2019-04-01T22:31:06.987Z,9.90
2019-04-01T22:33:34.169Z,15.63
2019-04-01T22:36:01.429Z,12.63
2019-04-01T22:38:29.150Z,11.80
2019-04-01T22:40:56.864Z,14.07
2019-04-01T22:43:25.306Z,11.90
2019-04-01T22:45:52.927Z,16.67
2019-04-01T22:48:20.115Z,12.37
2019-04-01T22:50:47.472Z,14.00
2019-04-01T22:53:14.694Z,12.50
2019-04-01T22:55:42.743Z,11.22
2019-04-01T22:58:10.175Z,13.10
2019-04-01T23:00:38.147Z,10.65
2019-04-01T23:03:05.568Z,13.70
2019-04-01T23:05:33.226Z,15.70
2019-04-01T23:08:02.203Z,14.58
2019-04-01T23:10:29.815Z,15.10
2019-04-01T23:12:57.017Z,12.28
2019-04-01T23:15:24.275Z,12.53
2019-04-01T23:17:51.414Z,11.95
2019-04-01T23:20:18.843Z,11.68
2019-04-01T23:22:46.303Z,12.70
2019-04-01T23:25:13.498Z,16.05
2019-04-01T23:27:40.671Z,12.28
2019-04-01T23:30:08.873Z,12.35
2019-04-01T23:32:36.362Z,14.18
2019-04-01T23:35:03.860Z,11.10
2019-04-01T23:37:31.257Z,15.05
2019-04-01T23:39:58.767Z,13.90
2019-04-01T23:42:26.254Z,12.43
2019-04-01T23:44:54.720Z,14.53
2019-04-01T23:47:21.903Z,14.35
2019-04-01T23:49:49.388Z,12.43
2019-04-01T23:52:16.826Z,10.82
2019-04-01T23:54:44.299Z,12.07
2019-04-01T23:57:11.518Z,13.48
2019-04-01T23:59:38.730Z,12.80
